sensor_id;sensor_type;location;lat;lon;timestamp;temperature;humidity
10312;DHT22;5201;48.776;9.128;2022-08-23T00:01:09;20.10;91.80
10312;DHT22;5201;48.776;9.128;2022-08-23T00:03:35;19.90;92.20
10312;DHT22;5201;48.776;9.128;2022-08-23T00:06:01;19.90;93.30
10312;DHT22;5201;48.776;9.128;2022-08-23T00:08:27;19.90;93.50
10312;DHT22;5201;48.776;9.128;2022-08-23T00:10:54;19.80;92.70
10312;DHT22;5201;48.776;9.128;2022-08-23T00:13:20;19.70;93.50
10312;DHT22;5201;48.776;9.128;2022-08-23T00:15:46;19.70;93.80
10312;DHT22;5201;48.776;9.128;2022-08-23T00:18:11;20.10;93.40
10312;DHT22;5201;48.776;9.128;2022-08-23T00:20:38;19.70;92.80
10312;DHT22;5201;48.776;9.128;2022-08-23T00:23:04;19.60;92.80
10312;DHT22;5201;48.776;9.128;2022-08-23T00:25:30;19.50;93.50
10312;DHT22;5201;48.776;9.128;2022-08-23T00:27:55;19.60;94.60
10312;DHT22;5201;48.776;9.128;2022-08-23T00:30:21;19.60;94.00
10312;DHT22;5201;48.776;9.128;2022-08-23T00:32:47;19.50;92.80
10312;DHT22;5201;48.776;9.128;2022-08-23T00:35:13;19.50;92.60
10312;DHT22;5201;48.776;9.128;2022-08-23T00:37:39;19.50;93.80
10312;DHT22;5201;48.776;9.128;2022-08-23T00:40:07;19.60;93.40
10312;DHT22;5201;48.776;9.128;2022-08-23T00:42:42;19.60;93.30
10312;DHT22;5201;48.776;9.128;2022-08-23T00:48:34;19.50;93.00
10312;DHT22;5201;48.776;9.128;2022-08-23T00:51:22;19.30;93.00
10312;DHT22;5201;48.776;9.128;2022-08-23T00:53:53;19.20;94.50
10312;DHT22;5201;48.776;9.128;2022-08-23T00:56:22;19.20;94.50
10312;DHT22;5201;48.776;9.128;2022-08-23T00:58:49;19.30;94.00
10312;DHT22;5201;48.776;9.128;2022-08-23T01:01:15;19.20;93.80
10312;DHT22;5201;48.776;9.128;2022-08-23T01:03:44;19.10;93.80
10312;DHT22;5201;48.776;9.128;2022-08-23T01:06:14;19.10;93.80
10312;DHT22;5201;48.776;9.128;2022-08-23T01:08:46;19.00;93.60
10312;DHT22;5201;48.776;9.128;2022-08-23T01:11:17;19.10;94.30
10312;DHT22;5201;48.776;9.128;2022-08-23T01:13:49;19.10;94.60
10312;DHT22;5201;48.776;9.128;2022-08-23T01:19:10;19.20;94.20
10312;DHT22;5201;48.776;9.128;2022-08-23T01:21:46;19.00;93.80
10312;DHT22;5201;48.776;9.128;2022-08-23T01:24:14;19.00;94.20
10312;DHT22;5201;48.776;9.128;2022-08-23T01:26:42;19.00;94.20
10312;DHT22;5201;48.776;9.128;2022-08-23T01:29:07;19.00;94.20
10312;DHT22;5201;48.776;9.128;2022-08-23T01:31:33;19.00;93.90
10312;DHT22;5201;48.776;9.128;2022-08-23T01:34:07;19.00;94.00
10312;DHT22;5201;48.776;9.128;2022-08-23T01:36:33;19.00;94.00
10312;DHT22;5201;48.776;9.128;2022-08-23T01:39:00;19.00;93.00
10312;DHT22;5201;48.776;9.128;2022-08-23T01:41:26;18.90;93.60
10312;DHT22;5201;48.776;9.128;2022-08-23T01:43:52;19.00;93.60
10312;DHT22;5201;48.776;9.128;2022-08-23T01:46:20;18.80;93.80
10312;DHT22;5201;48.776;9.128;2022-08-23T01:48:48;18.60;94.00
10312;DHT22;5201;48.776;9.128;2022-08-23T01:51:16;18.50;94.00
10312;DHT22;5201;48.776;9.128;2022-08-23T01:53:42;18.40;93.50
10312;DHT22;5201;48.776;9.128;2022-08-23T01:56:08;18.20;93.50
10312;DHT22;5201;48.776;9.128;2022-08-23T01:58:35;18.10;93.80
10312;DHT22;5201;48.776;9.128;2022-08-23T02:01:01;18.20;94.70
10312;DHT22;5201;48.776;9.128;2022-08-23T02:03:29;18.20;94.70
10312;DHT22;5201;48.776;9.128;2022-08-23T02:05:56;18.20;95.20
10312;DHT22;5201;48.776;9.128;2022-08-23T02:08:22;18.30;94.70
10312;DHT22;5201;48.776;9.128;2022-08-23T02:11:12;18.30;94.60
10312;DHT22;5201;48.776;9.128;2022-08-23T02:13:40;18.30;93.80
10312;DHT22;5201;48.776;9.128;2022-08-23T02:16:06;18.10;96.00
10312;DHT22;5201;48.776;9.128;2022-08-23T02:18:32;18.30;97.50
10312;DHT22;5201;48.776;9.128;2022-08-23T02:20:58;18.50;97.00
10312;DHT22;5201;48.776;9.128;2022-08-23T02:23:24;18.60;95.80
10312;DHT22;5201;48.776;9.128;2022-08-23T02:25:50;18.70;96.90
10312;DHT22;5201;48.776;9.128;2022-08-23T02:28:20;18.70;94.80
10312;DHT22;5201;48.776;9.128;2022-08-23T02:30:46;18.80;95.20
10312;DHT22;5201;48.776;9.128;2022-08-23T02:33:12;18.70;94.40
10312;DHT22;5201;48.776;9.128;2022-08-23T02:35:38;18.60;94.50
10312;DHT22;5201;48.776;9.128;2022-08-23T02:38:06;18.50;94.50
10312;DHT22;5201;48.776;9.128;2022-08-23T02:40:31;18.50;94.70
10312;DHT22;5201;48.776;9.128;2022-08-23T02:42:57;18.50;95.80
10312;DHT22;5201;48.776;9.128;2022-08-23T02:45:25;18.50;95.90
10312;DHT22;5201;48.776;9.128;2022-08-23T02:47:51;18.50;95.40
10312;DHT22;5201;48.776;9.128;2022-08-23T02:50:18;18.50;95.40
10312;DHT22;5201;48.776;9.128;2022-08-23T02:52:44;18.50;95.70
10312;DHT22;5201;48.776;9.128;2022-08-23T02:55:10;18.40;95.50
10312;DHT22;5201;48.776;9.128;2022-08-23T02:57:36;18.30;95.20
10312;DHT22;5201;48.776;9.128;2022-08-23T03:00:04;18.30;95.70
10312;DHT22;5201;48.776;9.128;2022-08-23T03:02:30;18.30;94.90
10312;DHT22;5201;48.776;9.128;2022-08-23T03:04:56;18.30;94.40
10312;DHT22;5201;48.776;9.128;2022-08-23T03:07:22;18.20;94.20
10312;DHT22;5201;48.776;9.128;2022-08-23T03:09:47;17.90;94.60
10312;DHT22;5201;48.776;9.128;2022-08-23T03:12:13;17.70;94.70
10312;DHT22;5201;48.776;9.128;2022-08-23T03:14:39;17.70;94.80
10312;DHT22;5201;48.776;9.128;2022-08-23T03:17:05;17.70;94.90
10312;DHT22;5201;48.776;9.128;2022-08-23T03:19:32;17.80;95.40
10312;DHT22;5201;48.776;9.128;2022-08-23T03:21:57;17.90;94.60
10312;DHT22;5201;48.776;9.128;2022-08-23T03:24:23;17.90;94.50
10312;DHT22;5201;48.776;9.128;2022-08-23T03:26:49;17.80;94.50
10312;DHT22;5201;48.776;9.128;2022-08-23T03:29:14;17.80;95.00
10312;DHT22;5201;48.776;9.128;2022-08-23T03:31:40;17.90;95.40
10312;DHT22;5201;48.776;9.128;2022-08-23T03:34:06;18.00;95.80
10312;DHT22;5201;48.776;9.128;2022-08-23T03:36:32;18.20;96.40
10312;DHT22;5201;48.776;9.128;2022-08-23T03:38:58;18.10;95.90
10312;DHT22;5201;48.776;9.128;2022-08-23T03:41:25;18.10;95.80
10312;DHT22;5201;48.776;9.128;2022-08-23T03:43:51;18.10;96.50
10312;DHT22;5201;48.776;9.128;2022-08-23T03:46:17;18.10;95.80
10312;DHT22;5201;48.776;9.128;2022-08-23T03:48:50;18.50;96.60
10312;DHT22;5201;48.776;9.128;2022-08-23T03:51:17;18.10;96.70
10312;DHT22;5201;48.776;9.128;2022-08-23T03:53:44;18.00;95.90
10312;DHT22;5201;48.776;9.128;2022-08-23T03:56:19;18.20;96.00
10312;DHT22;5201;48.776;9.128;2022-08-23T03:58:46;18.00;96.00
10312;DHT22;5201;48.776;9.128;2022-08-23T04:01:11;17.90;95.80
10312;DHT22;5201;48.776;9.128;2022-08-23T04:03:37;17.90;95.70
10312;DHT22;5201;48.776;9.128;2022-08-23T04:06:03;18.00;97.50
10312;DHT22;5201;48.776;9.128;2022-08-23T04:08:28;18.00;95.00
10312;DHT22;5201;48.776;9.128;2022-08-23T04:10:54;17.90;94.60
10312;DHT22;5201;48.776;9.128;2022-08-23T04:13:20;17.70;94.70
10312;DHT22;5201;48.776;9.128;2022-08-23T04:15:48;17.70;94.70
10312;DHT22;5201;48.776;9.128;2022-08-23T04:18:14;17.70;94.90
10312;DHT22;5201;48.776;9.128;2022-08-23T04:20:40;17.80;96.00
10312;DHT22;5201;48.776;9.128;2022-08-23T04:23:06;18.00;96.10
10312;DHT22;5201;48.776;9.128;2022-08-23T04:25:31;18.20;97.70
10312;DHT22;5201;48.776;9.128;2022-08-23T04:27:57;18.30;97.90
10312;DHT22;5201;48.776;9.128;2022-08-23T04:30:23;18.50;98.50
10312;DHT22;5201;48.776;9.128;2022-08-23T04:32:49;18.50;97.40
10312;DHT22;5201;48.776;9.128;2022-08-23T04:35:15;18.50;96.90
10312;DHT22;5201;48.776;9.128;2022-08-23T04:37:41;18.40;96.00
10312;DHT22;5201;48.776;9.128;2022-08-23T04:40:07;18.30;96.20
10312;DHT22;5201;48.776;9.128;2022-08-23T04:42:51;18.20;94.70
10312;DHT22;5201;48.776;9.128;2022-08-23T04:45:17;18.10;94.60
10312;DHT22;5201;48.776;9.128;2022-08-23T04:47:42;18.20;95.00
10312;DHT22;5201;48.776;9.128;2022-08-23T04:50:09;18.20;96.90
10312;DHT22;5201;48.776;9.128;2022-08-23T04:52:35;18.30;96.60
10312;DHT22;5201;48.776;9.128;2022-08-23T04:55:00;18.30;95.50
10312;DHT22;5201;48.776;9.128;2022-08-23T04:57:26;18.40;96.20
10312;DHT22;5201;48.776;9.128;2022-08-23T04:59:51;18.40;96.10
10312;DHT22;5201;48.776;9.128;2022-08-23T05:02:18;18.40;96.10
10312;DHT22;5201;48.776;9.128;2022-08-23T05:04:45;18.40;97.10
10312;DHT22;5201;48.776;9.128;2022-08-23T05:07:11;18.40;96.60
10312;DHT22;5201;48.776;9.128;2022-08-23T05:09:37;18.40;96.50
10312;DHT22;5201;48.776;9.128;2022-08-23T05:12:03;18.30;96.60
10312;DHT22;5201;48.776;9.128;2022-08-23T05:14:28;18.30;96.60
10312;DHT22;5201;48.776;9.128;2022-08-23T05:16:54;18.40;97.30
10312;DHT22;5201;48.776;9.128;2022-08-23T05:19:20;18.60;98.80
10312;DHT22;5201;48.776;9.128;2022-08-23T05:21:46;18.60;98.50
10312;DHT22;5201;48.776;9.128;2022-08-23T05:24:11;18.50;97.00
10312;DHT22;5201;48.776;9.128;2022-08-23T05:26:37;18.50;96.60
10312;DHT22;5201;48.776;9.128;2022-08-23T05:29:03;18.40;96.60
10312;DHT22;5201;48.776;9.128;2022-08-23T05:31:29;18.80;98.70
10312;DHT22;5201;48.776;9.128;2022-08-23T05:33:55;18.50;97.80
10312;DHT22;5201;48.776;9.128;2022-08-23T05:36:21;18.60;97.50
10312;DHT22;5201;48.776;9.128;2022-08-23T05:38:48;18.70;98.40
10312;DHT22;5201;48.776;9.128;2022-08-23T05:41:15;18.80;97.40
10312;DHT22;5201;48.776;9.128;2022-08-23T05:43:41;18.80;96.40
10312;DHT22;5201;48.776;9.128;2022-08-23T05:46:10;18.80;96.20
10312;DHT22;5201;48.776;9.128;2022-08-23T05:48:37;18.80;97.60
10312;DHT22;5201;48.776;9.128;2022-08-23T05:51:10;18.80;97.60
10312;DHT22;5201;48.776;9.128;2022-08-23T05:53:37;18.90;96.40
10312;DHT22;5201;48.776;9.128;2022-08-23T05:56:23;18.90;96.10
10312;DHT22;5201;48.776;9.128;2022-08-23T05:58:52;18.90;96.10
10312;DHT22;5201;48.776;9.128;2022-08-23T06:01:19;18.90;97.00
10312;DHT22;5201;48.776;9.128;2022-08-23T06:03:45;19.00;96.30
10312;DHT22;5201;48.776;9.128;2022-08-23T06:06:12;19.00;96.10
10312;DHT22;5201;48.776;9.128;2022-08-23T06:08:39;19.10;96.00
10312;DHT22;5201;48.776;9.128;2022-08-23T06:11:08;19.20;96.00
10312;DHT22;5201;48.776;9.128;2022-08-23T06:13:37;19.20;96.30
10312;DHT22;5201;48.776;9.128;2022-08-23T06:16:04;19.20;95.80
10312;DHT22;5201;48.776;9.128;2022-08-23T06:18:30;19.20;95.60
10312;DHT22;5201;48.776;9.128;2022-08-23T06:21:01;19.20;95.80
10312;DHT22;5201;48.776;9.128;2022-08-23T06:23:27;19.50;95.80
10312;DHT22;5201;48.776;9.128;2022-08-23T06:25:53;19.50;95.40
10312;DHT22;5201;48.776;9.128;2022-08-23T06:28:18;19.70;95.90
10312;DHT22;5201;48.776;9.128;2022-08-23T06:30:44;20.00;95.70
10312;DHT22;5201;48.776;9.128;2022-08-23T06:33:11;20.20;95.60
10312;DHT22;5201;48.776;9.128;2022-08-23T06:35:38;20.50;95.00
10312;DHT22;5201;48.776;9.128;2022-08-23T06:38:03;20.80;94.80
10312;DHT22;5201;48.776;9.128;2022-08-23T06:40:29;21.10;94.20
10312;DHT22;5201;48.776;9.128;2022-08-23T06:42:56;21.30;93.60
10312;DHT22;5201;48.776;9.128;2022-08-23T06:45:22;21.50;93.20
10312;DHT22;5201;48.776;9.128;2022-08-23T06:47:48;21.60;93.90
10312;DHT22;5201;48.776;9.128;2022-08-23T06:50:14;21.80;92.70
10312;DHT22;5201;48.776;9.128;2022-08-23T06:52:40;21.90;92.00
10312;DHT22;5201;48.776;9.128;2022-08-23T06:55:05;22.20;92.50
10312;DHT22;5201;48.776;9.128;2022-08-23T06:57:31;22.40;91.40
10312;DHT22;5201;48.776;9.128;2022-08-23T06:59:57;22.70;91.00
10312;DHT22;5201;48.776;9.128;2022-08-23T07:02:22;22.80;90.40
10312;DHT22;5201;48.776;9.128;2022-08-23T07:04:48;22.70;90.40
10312;DHT22;5201;48.776;9.128;2022-08-23T07:07:18;22.70;90.60
10312;DHT22;5201;48.776;9.128;2022-08-23T07:09:44;22.80;90.60
10312;DHT22;5201;48.776;9.128;2022-08-23T07:12:09;22.80;90.40
10312;DHT22;5201;48.776;9.128;2022-08-23T07:14:36;22.90;91.30
10312;DHT22;5201;48.776;9.128;2022-08-23T07:17:02;23.30;90.80
10312;DHT22;5201;48.776;9.128;2022-08-23T07:19:33;23.80;91.00
10312;DHT22;5201;48.776;9.128;2022-08-23T07:22:00;24.10;89.00
10312;DHT22;5201;48.776;9.128;2022-08-23T07:24:27;24.40;88.30
10312;DHT22;5201;48.776;9.128;2022-08-23T07:26:53;24.60;86.90
10312;DHT22;5201;48.776;9.128;2022-08-23T07:29:20;24.60;87.00
10312;DHT22;5201;48.776;9.128;2022-08-23T07:31:51;24.30;87.30
10312;DHT22;5201;48.776;9.128;2022-08-23T07:34:18;24.40;88.60
10312;DHT22;5201;48.776;9.128;2022-08-23T07:36:45;24.50;86.80
10312;DHT22;5201;48.776;9.128;2022-08-23T07:39:13;24.70;87.70
10312;DHT22;5201;48.776;9.128;2022-08-23T07:41:39;24.80;86.40
10312;DHT22;5201;48.776;9.128;2022-08-23T07:44:08;24.80;87.20
10312;DHT22;5201;48.776;9.128;2022-08-23T07:46:34;25.00;87.80
10312;DHT22;5201;48.776;9.128;2022-08-23T07:49:02;25.20;84.90
10312;DHT22;5201;48.776;9.128;2022-08-23T07:51:30;25.40;87.90
10312;DHT22;5201;48.776;9.128;2022-08-23T07:53:56;25.50;86.80
10312;DHT22;5201;48.776;9.128;2022-08-23T07:56:22;25.70;83.40
10312;DHT22;5201;48.776;9.128;2022-08-23T07:58:48;25.60;87.30
10312;DHT22;5201;48.776;9.128;2022-08-23T08:01:21;25.80;84.50
10312;DHT22;5201;48.776;9.128;2022-08-23T08:03:48;25.90;83.20
10312;DHT22;5201;48.776;9.128;2022-08-23T08:06:23;25.80;84.90
10312;DHT22;5201;48.776;9.128;2022-08-23T08:08:50;25.90;84.50
10312;DHT22;5201;48.776;9.128;2022-08-23T08:11:17;25.90;84.90
10312;DHT22;5201;48.776;9.128;2022-08-23T08:13:45;25.80;84.40
10312;DHT22;5201;48.776;9.128;2022-08-23T08:16:24;25.90;84.30
10312;DHT22;5201;48.776;9.128;2022-08-23T08:18:52;25.90;83.20
10312;DHT22;5201;48.776;9.128;2022-08-23T08:21:18;25.90;86.20
10312;DHT22;5201;48.776;9.128;2022-08-23T08:23:44;26.20;82.90
10312;DHT22;5201;48.776;9.128;2022-08-23T08:26:10;26.50;82.40
10312;DHT22;5201;48.776;9.128;2022-08-23T08:28:37;26.50;81.50
10312;DHT22;5201;48.776;9.128;2022-08-23T08:31:03;26.70;83.00
10312;DHT22;5201;48.776;9.128;2022-08-23T08:33:30;27.00;79.80
10312;DHT22;5201;48.776;9.128;2022-08-23T08:35:57;27.20;81.20
10312;DHT22;5201;48.776;9.128;2022-08-23T08:38:24;27.50;78.90
10312;DHT22;5201;48.776;9.128;2022-08-23T08:41:15;27.90;76.70
10312;DHT22;5201;48.776;9.128;2022-08-23T08:46:47;28.60;77.60
10312;DHT22;5201;48.776;9.128;2022-08-23T08:49:42;29.40;72.70
10312;DHT22;5201;48.776;9.128;2022-08-23T08:52:11;29.60;72.40
10312;DHT22;5201;48.776;9.128;2022-08-23T08:54:38;29.60;70.40
10312;DHT22;5201;48.776;9.128;2022-08-23T08:57:06;29.80;71.40
10312;DHT22;5201;48.776;9.128;2022-08-23T08:59:51;30.10;68.20
10312;DHT22;5201;48.776;9.128;2022-08-23T09:02:19;30.30;66.40
10312;DHT22;5201;48.776;9.128;2022-08-23T09:04:45;30.40;67.90
10312;DHT22;5201;48.776;9.128;2022-08-23T09:07:14;30.90;67.90
10312;DHT22;5201;48.776;9.128;2022-08-23T09:12:38;31.40;66.20
10312;DHT22;5201;48.776;9.128;2022-08-23T09:15:25;31.20;65.60
10312;DHT22;5201;48.776;9.128;2022-08-23T09:18:12;31.40;64.20
10312;DHT22;5201;48.776;9.128;2022-08-23T09:20:39;31.30;65.70
10312;DHT22;5201;48.776;9.128;2022-08-23T09:23:08;31.50;67.00
10312;DHT22;5201;48.776;9.128;2022-08-23T09:25:35;31.60;65.70
10312;DHT22;5201;48.776;9.128;2022-08-23T09:28:01;31.00;64.10
10312;DHT22;5201;48.776;9.128;2022-08-23T09:30:51;30.70;65.60
10312;DHT22;5201;48.776;9.128;2022-08-23T09:33:24;30.90;64.80
10312;DHT22;5201;48.776;9.128;2022-08-23T09:36:17;31.30;65.30
10312;DHT22;5201;48.776;9.128;2022-08-23T09:38:54;31.50;62.20
10312;DHT22;5201;48.776;9.128;2022-08-23T09:41:24;31.10;63.90
10312;DHT22;5201;48.776;9.128;2022-08-23T09:43:52;30.70;64.50
10312;DHT22;5201;48.776;9.128;2022-08-23T09:46:30;30.90;65.20
10312;DHT22;5201;48.776;9.128;2022-08-23T09:48:57;30.50;65.10
10312;DHT22;5201;48.776;9.128;2022-08-23T09:54:22;31.00;64.40
10312;DHT22;5201;48.776;9.128;2022-08-23T09:56:53;31.10;63.00
10312;DHT22;5201;48.776;9.128;2022-08-23T10:01:52;31.10;62.80
10312;DHT22;5201;48.776;9.128;2022-08-23T10:04:38;31.10;63.50
10312;DHT22;5201;48.776;9.128;2022-08-23T10:07:38;31.20;64.60
10312;DHT22;5201;48.776;9.128;2022-08-23T10:12:48;30.90;62.70
10312;DHT22;5201;48.776;9.128;2022-08-23T10:15:14;31.20;62.10
10312;DHT22;5201;48.776;9.128;2022-08-23T10:17:59;31.30;62.10
10312;DHT22;5201;48.776;9.128;2022-08-23T10:20:46;31.60;61.80
10312;DHT22;5201;48.776;9.128;2022-08-23T10:23:54;31.70;61.60
10312;DHT22;5201;48.776;9.128;2022-08-23T10:26:26;31.90;60.10
10312;DHT22;5201;48.776;9.128;2022-08-23T10:29:25;31.70;61.40
10312;DHT22;5201;48.776;9.128;2022-08-23T10:38:24;32.00;61.20
10312;DHT22;5201;48.776;9.128;2022-08-23T10:41:17;32.30;60.00
10312;DHT22;5201;48.776;9.128;2022-08-23T10:44:07;32.60;58.50
10312;DHT22;5201;48.776;9.128;2022-08-23T10:46:43;32.30;58.90
10312;DHT22;5201;48.776;9.128;2022-08-23T10:49:12;32.20;58.70
10312;DHT22;5201;48.776;9.128;2022-08-23T10:51:42;32.10;57.80
10312;DHT22;5201;48.776;9.128;2022-08-23T10:54:15;32.20;56.80
10312;DHT22;5201;48.776;9.128;2022-08-23T10:56:43;31.60;57.90
10312;DHT22;5201;48.776;9.128;2022-08-23T10:59:19;31.40;58.30
10312;DHT22;5201;48.776;9.128;2022-08-23T11:05:06;31.20;60.70
10312;DHT22;5201;48.776;9.128;2022-08-23T11:07:33;31.50;57.40
10312;DHT22;5201;48.776;9.128;2022-08-23T11:13:04;31.50;57.30
10312;DHT22;5201;48.776;9.128;2022-08-23T11:18:05;31.80;57.30
10312;DHT22;5201;48.776;9.128;2022-08-23T11:25:46;31.70;57.50
10312;DHT22;5201;48.776;9.128;2022-08-23T11:33:24;30.80;58.20
10312;DHT22;5201;48.776;9.128;2022-08-23T11:35:54;30.90;59.70
10312;DHT22;5201;48.776;9.128;2022-08-23T11:41:25;30.90;58.30
10312;DHT22;5201;48.776;9.128;2022-08-23T11:52:29;30.80;57.60
10312;DHT22;5201;48.776;9.128;2022-08-23T11:57:55;30.50;57.30
10312;DHT22;5201;48.776;9.128;2022-08-23T12:08:49;30.60;58.20
10312;DHT22;5201;48.776;9.128;2022-08-23T12:11:17;30.50;61.90
10312;DHT22;5201;48.776;9.128;2022-08-23T12:14:00;30.60;60.50
10312;DHT22;5201;48.776;9.128;2022-08-23T12:16:41;30.70;59.10
10312;DHT22;5201;48.776;9.128;2022-08-23T12:19:09;30.80;57.80
10312;DHT22;5201;48.776;9.128;2022-08-23T12:24:29;30.60;59.20
10312;DHT22;5201;48.776;9.128;2022-08-23T12:27:11;30.10;58.70
10312;DHT22;5201;48.776;9.128;2022-08-23T12:32:51;29.80;59.20
10312;DHT22;5201;48.776;9.128;2022-08-23T12:38:10;29.30;60.70
10312;DHT22;5201;48.776;9.128;2022-08-23T12:40:48;29.30;60.30
10312;DHT22;5201;48.776;9.128;2022-08-23T12:43:23;29.40;60.10
10312;DHT22;5201;48.776;9.128;2022-08-23T12:45:53;29.40;59.90
10312;DHT22;5201;48.776;9.128;2022-08-23T12:48:24;29.20;59.50
10312;DHT22;5201;48.776;9.128;2022-08-23T12:50:54;29.20;59.30
10312;DHT22;5201;48.776;9.128;2022-08-23T12:53:41;28.90;60.00
10312;DHT22;5201;48.776;9.128;2022-08-23T12:56:13;28.80;61.10
10312;DHT22;5201;48.776;9.128;2022-08-23T12:58:45;28.60;60.60
10312;DHT22;5201;48.776;9.128;2022-08-23T13:01:41;28.50;61.10
10312;DHT22;5201;48.776;9.128;2022-08-23T13:04:12;28.40;61.70
10312;DHT22;5201;48.776;9.128;2022-08-23T13:06:51;28.30;60.10
10312;DHT22;5201;48.776;9.128;2022-08-23T13:11:45;28.20;60.30
10312;DHT22;5201;48.776;9.128;2022-08-23T13:16:55;28.50;60.40
10312;DHT22;5201;48.776;9.128;2022-08-23T13:19:25;28.30;61.30
10312;DHT22;5201;48.776;9.128;2022-08-23T13:22:25;28.40;61.30
10312;DHT22;5201;48.776;9.128;2022-08-23T13:27:34;28.50;60.20
10312;DHT22;5201;48.776;9.128;2022-08-23T13:32:42;28.60;60.60
10312;DHT22;5201;48.776;9.128;2022-08-23T13:38:23;28.50;60.40
10312;DHT22;5201;48.776;9.128;2022-08-23T13:41:04;28.50;61.60
10312;DHT22;5201;48.776;9.128;2022-08-23T13:43:38;28.60;62.10
10312;DHT22;5201;48.776;9.128;2022-08-23T13:46:13;28.70;62.40
10312;DHT22;5201;48.776;9.128;2022-08-23T13:51:43;28.70;63.50
10312;DHT22;5201;48.776;9.128;2022-08-23T13:54:14;28.80;61.70
10312;DHT22;5201;48.776;9.128;2022-08-23T13:56:48;28.50;62.50
10312;DHT22;5201;48.776;9.128;2022-08-23T13:59:27;29.00;60.70
10312;DHT22;5201;48.776;9.128;2022-08-23T14:01:53;28.80;61.10
10312;DHT22;5201;48.776;9.128;2022-08-23T14:04:19;28.60;61.00
10312;DHT22;5201;48.776;9.128;2022-08-23T14:06:45;28.60;61.90
10312;DHT22;5201;48.776;9.128;2022-08-23T14:09:11;28.70;64.00
10312;DHT22;5201;48.776;9.128;2022-08-23T14:11:37;28.70;61.40
10312;DHT22;5201;48.776;9.128;2022-08-23T14:14:03;28.70;61.50
10312;DHT22;5201;48.776;9.128;2022-08-23T14:16:32;28.50;62.00
10312;DHT22;5201;48.776;9.128;2022-08-23T14:19:03;28.40;61.50
10312;DHT22;5201;48.776;9.128;2022-08-23T14:21:29;28.40;62.00
10312;DHT22;5201;48.776;9.128;2022-08-23T14:23:55;28.40;61.60
10312;DHT22;5201;48.776;9.128;2022-08-23T14:26:20;28.60;61.50
10312;DHT22;5201;48.776;9.128;2022-08-23T14:28:47;28.80;61.40
10312;DHT22;5201;48.776;9.128;2022-08-23T14:31:13;28.80;60.80
10312;DHT22;5201;48.776;9.128;2022-08-23T14:33:39;28.70;61.10
10312;DHT22;5201;48.776;9.128;2022-08-23T14:36:05;28.60;61.60
10312;DHT22;5201;48.776;9.128;2022-08-23T14:38:31;28.40;61.70
10312;DHT22;5201;48.776;9.128;2022-08-23T14:41:01;28.50;61.10
10312;DHT22;5201;48.776;9.128;2022-08-23T14:43:28;28.40;61.40
10312;DHT22;5201;48.776;9.128;2022-08-23T14:45:55;28.50;62.30
10312;DHT22;5201;48.776;9.128;2022-08-23T14:48:21;28.40;62.20
10312;DHT22;5201;48.776;9.128;2022-08-23T14:50:48;28.30;63.10
10312;DHT22;5201;48.776;9.128;2022-08-23T14:53:16;28.30;63.50
10312;DHT22;5201;48.776;9.128;2022-08-23T14:55:42;28.30;63.80
10312;DHT22;5201;48.776;9.128;2022-08-23T14:58:08;28.30;63.90
10312;DHT22;5201;48.776;9.128;2022-08-23T15:00:35;28.20;64.40
10312;DHT22;5201;48.776;9.128;2022-08-23T15:03:05;28.20;63.60
10312;DHT22;5201;48.776;9.128;2022-08-23T15:05:31;28.20;62.50
10312;DHT22;5201;48.776;9.128;2022-08-23T15:07:57;28.10;61.70
10312;DHT22;5201;48.776;9.128;2022-08-23T15:10:23;28.10;62.50
10312;DHT22;5201;48.776;9.128;2022-08-23T15:12:48;28.20;62.50
10312;DHT22;5201;48.776;9.128;2022-08-23T15:15:17;28.40;64.10
10312;DHT22;5201;48.776;9.128;2022-08-23T15:17:50;28.50;63.70
10312;DHT22;5201;48.776;9.128;2022-08-23T15:20:18;28.50;61.30
10312;DHT22;5201;48.776;9.128;2022-08-23T15:22:44;28.50;61.90
10312;DHT22;5201;48.776;9.128;2022-08-23T15:25:10;28.50;63.00
10312;DHT22;5201;48.776;9.128;2022-08-23T15:27:36;28.60;62.70
10312;DHT22;5201;48.776;9.128;2022-08-23T15:30:03;28.60;62.60
10312;DHT22;5201;48.776;9.128;2022-08-23T15:32:29;28.60;62.10
10312;DHT22;5201;48.776;9.128;2022-08-23T15:34:54;28.60;62.20
10312;DHT22;5201;48.776;9.128;2022-08-23T15:37:20;28.60;62.10
10312;DHT22;5201;48.776;9.128;2022-08-23T15:39:47;28.50;62.00
10312;DHT22;5201;48.776;9.128;2022-08-23T15:42:12;28.40;62.50
10312;DHT22;5201;48.776;9.128;2022-08-23T15:44:38;28.40;63.20
10312;DHT22;5201;48.776;9.128;2022-08-23T15:47:04;28.50;62.00
10312;DHT22;5201;48.776;9.128;2022-08-23T15:49:38;28.50;62.40
10312;DHT22;5201;48.776;9.128;2022-08-23T15:52:04;28.50;62.40
10312;DHT22;5201;48.776;9.128;2022-08-23T15:54:30;28.50;62.60
10312;DHT22;5201;48.776;9.128;2022-08-23T15:56:55;28.60;61.90
10312;DHT22;5201;48.776;9.128;2022-08-23T15:59:21;28.50;63.60
10312;DHT22;5201;48.776;9.128;2022-08-23T16:01:47;28.50;65.00
10312;DHT22;5201;48.776;9.128;2022-08-23T16:04:12;28.60;64.50
10312;DHT22;5201;48.776;9.128;2022-08-23T16:06:38;28.70;64.60
10312;DHT22;5201;48.776;9.128;2022-08-23T16:09:06;28.70;64.80
10312;DHT22;5201;48.776;9.128;2022-08-23T16:11:36;28.70;64.50
10312;DHT22;5201;48.776;9.128;2022-08-23T16:14:02;28.70;63.50
10312;DHT22;5201;48.776;9.128;2022-08-23T16:16:35;28.60;63.40
10312;DHT22;5201;48.776;9.128;2022-08-23T16:19:01;28.50;63.50
10312;DHT22;5201;48.776;9.128;2022-08-23T16:21:29;28.60;63.80
10312;DHT22;5201;48.776;9.128;2022-08-23T16:23:56;28.60;63.70
10312;DHT22;5201;48.776;9.128;2022-08-23T16:26:25;28.70;63.60
10312;DHT22;5201;48.776;9.128;2022-08-23T16:28:53;28.60;63.80
10312;DHT22;5201;48.776;9.128;2022-08-23T16:31:19;28.50;63.60
10312;DHT22;5201;48.776;9.128;2022-08-23T16:33:45;28.40;64.40
10312;DHT22;5201;48.776;9.128;2022-08-23T16:36:13;28.40;64.80
10312;DHT22;5201;48.776;9.128;2022-08-23T16:38:42;28.30;64.10
10312;DHT22;5201;48.776;9.128;2022-08-23T16:41:08;28.30;64.60
10312;DHT22;5201;48.776;9.128;2022-08-23T16:43:34;28.20;64.60
10312;DHT22;5201;48.776;9.128;2022-08-23T16:45:59;28.30;64.60
10312;DHT22;5201;48.776;9.128;2022-08-23T16:48:25;28.20;64.40
10312;DHT22;5201;48.776;9.128;2022-08-23T16:50:51;28.20;64.80
10312;DHT22;5201;48.776;9.128;2022-08-23T16:53:17;28.20;64.60
10312;DHT22;5201;48.776;9.128;2022-08-23T16:55:43;28.20;65.00
10312;DHT22;5201;48.776;9.128;2022-08-23T16:58:09;28.20;64.80
10312;DHT22;5201;48.776;9.128;2022-08-23T17:00:35;28.30;64.60
10312;DHT22;5201;48.776;9.128;2022-08-23T17:03:02;28.10;65.00
10312;DHT22;5201;48.776;9.128;2022-08-23T17:05:29;28.10;65.20
10312;DHT22;5201;48.776;9.128;2022-08-23T17:07:54;28.10;64.70
10312;DHT22;5201;48.776;9.128;2022-08-23T17:10:21;28.10;64.60
10312;DHT22;5201;48.776;9.128;2022-08-23T17:12:49;28.00;64.40
10312;DHT22;5201;48.776;9.128;2022-08-23T17:15:18;27.90;64.50
10312;DHT22;5201;48.776;9.128;2022-08-23T17:17:44;27.90;64.70
10312;DHT22;5201;48.776;9.128;2022-08-23T17:20:11;27.80;64.90
10312;DHT22;5201;48.776;9.128;2022-08-23T17:22:37;27.80;65.30
10312;DHT22;5201;48.776;9.128;2022-08-23T17:25:04;27.90;64.60
10312;DHT22;5201;48.776;9.128;2022-08-23T17:27:30;27.80;64.90
10312;DHT22;5201;48.776;9.128;2022-08-23T17:29:56;27.70;65.20